Time;durP1;ratioP1;P1;durP2;ratioP2;P2;SDS_P1;SDS_P2;PMS_P1;PMS_P2;Temp;Humidity;BMP_temperature;BMP_pressure;BME280_temperature;BME280_humidity;BME280_pressure;Samples;Min_cycle;Max_cycle;Signal;HPM_P1;HPM_P2
2022/08/16 00:02:28;;;;;;;6.72;2.53;;;;;;;26.67;45.76;100346.41;4922432;29;20055;-83
2022/08/16 00:04:55;;;;;;;3.67;2.58;;;;;;;27.13;46.12;100417.06;4919670;29;20363;-83
2022/08/16 00:07:26;;;;;;;6.28;2.70;;;;;;;27.14;45.91;100429.59;4919066;29;20077;-82
2022/08/16 00:09:56;;;;;;;6.07;2.40;;;;;;;27.19;45.47;100454.25;4920526;29;20474;-82
2022/08/16 00:12:26;;;;;;;5.10;2.75;;;;;;;26.43;45.62;100329.41;4919868;29;20519;-82
2022/08/16 00:14:54;;;;;;;9.50;2.88;;;;;;;27.15;45.56;100436.72;4921623;29;20055;-83
2022/08/16 00:17:23;;;;;;;12.57;3.53;;;;;;;26.80;45.62;100410.59;4919710;29;20066;-83
2022/08/16 00:19:52;;;;;;;5.32;2.65;;;;;;;27.06;45.68;100453.50;4921312;29;20055;-82
2022/08/16 00:22:20;;;;;;;10.15;2.70;;;;;;;27.05;45.97;100454.56;4903952;29;20086;-83
2022/08/16 00:24:50;;;;;;;;;;;;;;;27.09;45.78;100471.25;4905802;29;20054;-83
2022/08/16 00:27:17;;;;;;;10.30;3.03;;;;;;;26.82;46.00;100436.50;4919048;29;19966;-81
2022/08/16 00:29:44;;;;;;;4.78;2.30;;;;;;;26.99;46.52;100481.97;4904586;29;20599;-83
2022/08/16 00:32:12;;;;;;;6.65;2.45;;;;;;;26.99;46.70;100471.06;4904798;29;20055;-82
2022/08/16 00:34:43;;;;;;;6.43;3.17;;;;;;;26.66;47.90;100412.00;4919896;29;20526;-82
2022/08/16 00:37:20;;;;;;;6.20;3.10;;;;;;;26.97;48.70;100482.22;4919320;29;20521;-82
2022/08/16 00:39:51;;;;;;;9.38;4.18;;;;;;;26.59;49.52;100455.72;4921247;29;20062;-82
2022/08/16 00:42:27;;;;;;;9.05;4.10;;;;;;;26.49;50.53;100450.91;4918597;28;20078;-83
2022/08/16 00:45:02;;;;;;;7.97;4.40;;;;;;;26.41;51.26;100478.53;4904755;29;20571;-82
2022/08/16 00:47:34;;;;;;;15.43;4.72;;;;;;;26.37;51.70;100478.16;4920040;29;20059;-82
2022/08/16 00:50:04;;;;;;;8.25;4.97;;;;;;;26.03;51.95;100447.34;4904589;29;20055;-82
2022/08/16 00:52:37;;;;;;;8.10;5.05;;;;;;;26.30;51.91;100474.78;4919629;29;20085;-81
2022/08/16 00:55:16;;;;;;;4.97;4.25;;;;;;;26.01;52.52;100461.16;4905709;29;20177;-82
2022/08/16 00:57:45;;;;;;;7.07;4.43;;;;;;;26.17;52.77;100469.63;4919404;29;20699;-82
2022/08/16 01:00:31;;;;;;;5.10;4.30;;;;;;;26.06;53.04;100451.47;4920629;29;20173;-83
2022/08/16 01:03:01;;;;;;;8.02;4.70;;;;;;;26.10;52.88;100461.63;4920569;29;20611;-83
2022/08/16 01:05:29;;;;;;;6.88;5.10;;;;;;;25.93;52.92;100442.53;4918378;29;20591;-82
2022/08/16 01:07:58;;;;;;;8.23;4.75;;;;;;;25.90;53.13;100459.31;4921160;29;20400;-83
2022/08/16 01:10:29;;;;;;;5.53;4.57;;;;;;;25.87;53.12;100429.06;4919557;29;20055;-82
2022/08/16 01:13:03;;;;;;;11.13;5.00;;;;;;;26.10;53.21;100477.94;4919383;29;20507;-83
2022/08/16 01:15:33;;;;;;;11.00;4.43;;;;;;;25.67;52.97;100405.81;4918921;29;20520;-81
2022/08/16 01:18:03;;;;;;;5.63;4.72;;;;;;;25.89;53.16;100451.41;4903163;29;20328;-83
2022/08/16 01:20:33;;;;;;;;;;;;;;;25.79;54.25;100473.75;4920156;29;20469;-82
2022/08/16 01:23:11;;;;;;;10.27;4.50;;;;;;;25.17;54.45;100390.06;4919550;29;21103;-81
2022/08/16 01:25:49;;;;;;;6.38;4.38;;;;;;;25.39;53.96;100420.19;4920259;29;20059;-82
2022/08/16 01:28:26;;;;;;;7.32;4.60;;;;;;;25.69;54.11;100473.53;4919706;29;20241;-84
2022/08/16 01:30:57;;;;;;;8.43;4.65;;;;;;;25.70;53.74;100489.59;4921061;29;20059;-84
2022/08/16 01:33:24;;;;;;;6.00;4.10;;;;;;;25.32;53.74;100439.31;4919941;29;20051;-83
2022/08/16 01:36:06;;;;;;;6.50;4.47;;;;;;;25.56;53.71;100474.63;4920759;29;20051;-83
2022/08/16 01:38:43;;;;;;;8.77;4.28;;;;;;;25.08;54.26;100407.78;4918594;29;21115;-84
2022/08/16 01:41:26;;;;;;;8.88;4.28;;;;;;;25.38;54.84;100467.41;4921561;29;20050;-83
2022/08/16 01:43:56;;;;;;;6.55;4.53;;;;;;;25.38;54.41;100473.69;4919044;29;20511;-82
2022/08/16 01:46:40;;;;;;;9.45;4.47;;;;;;;25.51;55.18;100483.50;4918648;28;20055;-82
2022/08/16 01:49:12;;;;;;;5.55;4.32;;;;;;;25.45;54.41;100472.75;4919008;29;20058;-83
2022/08/16 01:51:42;;;;;;;14.63;4.82;;;;;;;25.05;54.69;100422.66;4920487;29;20052;-83
2022/08/16 01:54:10;;;;;;;6.18;4.40;;;;;;;25.52;54.33;100493.28;4920195;28;20059;-82
2022/08/16 01:56:41;;;;;;;7.25;4.93;;;;;;;25.50;54.60;100483.72;4922511;29;20062;-82
2022/08/16 01:59:10;;;;;;;8.63;4.28;;;;;;;25.53;54.05;100489.50;4926485;29;20790;-83
2022/08/16 02:01:47;;;;;;;6.45;4.30;;;;;;;25.64;53.81;100497.88;4929800;28;20536;-82
2022/08/16 02:04:16;;;;;;;6.97;4.55;;;;;;;25.35;53.95;100447.00;4925287;29;20059;-84
2022/08/16 02:07:07;;;;;;;6.50;3.78;;;;;;;25.35;54.01;100462.47;4921632;28;20129;-81
2022/08/16 02:09:37;;;;;;;5.60;3.97;;;;;;;25.31;53.93;100451.22;4921845;29;20051;-82
2022/08/16 02:12:06;;;;;;;5.13;4.18;;;;;;;25.57;54.04;100498.00;4906273;29;20103;-83
2022/08/16 02:14:53;;;;;;;6.75;4.45;;;;;;;25.37;54.07;100480.19;4921713;29;20655;-82
2022/08/16 02:17:20;;;;;;;5.53;3.80;;;;;;;25.21;53.93;100434.72;4904518;29;20059;-81
2022/08/16 02:19:50;;;;;;;7.05;4.13;;;;;;;25.51;53.99;100493.50;4923327;29;20158;-82
2022/08/16 02:22:26;;;;;;;7.40;4.38;;;;;;;25.22;54.25;100451.84;4921042;29;20743;-82
2022/08/16 02:25:02;;;;;;;8.05;4.82;;;;;;;25.33;54.63;100486.31;4906768;29;20055;-83
2022/08/16 02:27:29;;;;;;;4.80;4.30;;;;;;;25.08;54.54;100457.47;4905738;29;20051;-83
2022/08/16 02:29:57;;;;;;;5.25;3.90;;;;;;;25.01;54.63;100445.91;4921641;29;20141;-83
2022/08/16 02:32:31;;;;;;;10.23;4.00;;;;;;;24.83;55.03;100424.28;4905962;29;20057;-83
2022/08/16 02:35:19;;;;;;;5.43;4.50;;;;;;;25.24;55.00;100488.56;4921278;29;20047;-83
2022/08/16 02:37:49;;;;;;;6.18;4.10;;;;;;;24.83;55.09;100427.84;4920940;29;20490;-83
2022/08/16 02:40:20;;;;;;;8.10;4.55;;;;;;;25.23;54.91;100497.78;4921289;29;20067;-83
2022/08/16 02:42:48;;;;;;;4.55;4.15;;;;;;;24.94;55.06;100456.88;4920979;29;20549;-83
2022/08/16 02:45:19;;;;;;;5.72;4.28;;;;;;;25.18;54.85;100478.66;4921697;29;20056;-83
2022/08/16 02:47:50;;;;;;;7.28;4.18;;;;;;;25.31;54.41;100496.59;4922453;29;20149;-82
2022/08/16 02:50:37;;;;;;;5.30;4.45;;;;;;;25.11;54.78;100477.91;4924598;29;20448;-83
2022/08/16 02:53:23;;;;;;;11.10;4.70;;;;;;;25.26;54.60;100510.88;4932041;28;20053;-82
2022/08/16 02:55:52;;;;;;;4.82;4.07;;;;;;;25.24;54.63;100510.28;4940984;28;20053;-82
2022/08/16 02:58:22;;;;;;;5.72;4.38;;;;;;;25.14;54.59;100496.44;4925939;28;20589;-81
2022/08/16 03:00:51;;;;;;;6.28;4.18;;;;;;;25.21;54.53;100513.50;4925649;28;20359;-82
2022/08/16 03:03:21;;;;;;;6.07;4.13;;;;;;;24.97;54.92;100473.75;4941522;28;20429;-83
2022/08/16 03:05:50;;;;;;;10.85;4.47;;;;;;;25.19;54.58;100507.47;4939872;28;20121;-82
2022/08/16 03:08:20;;;;;;;7.65;4.30;;;;;;;25.01;55.06;100510.25;4942653;28;20328;-83
2022/08/16 03:11:07;;;;;;;5.72;4.28;;;;;;;25.15;54.94;100536.13;4927545;28;20681;-82
2022/08/16 03:13:49;;;;;;;5.15;4.65;;;;;;;24.84;55.56;100504.69;4940243;28;20105;-82
2022/08/16 03:16:19;;;;;;;5.95;4.47;;;;;;;24.95;55.80;100537.28;4923816;28;20062;-84
2022/08/16 03:19:07;;;;;;;7.95;4.22;;;;;;;24.94;55.83;100541.06;4941684;28;20441;-82
2022/08/16 03:21:35;;;;;;;5.45;4.22;;;;;;;24.97;55.42;100544.38;4940147;28;20638;-83
2022/08/16 03:24:06;;;;;;;6.47;4.53;;;;;;;24.80;55.36;100517.06;4940164;28;20057;-81
2022/08/16 03:26:53;;;;;;;8.80;3.92;;;;;;;24.72;55.27;100510.06;4926908;28;21071;-82
2022/08/16 03:29:28;;;;;;;10.25;4.20;;;;;;;24.70;55.21;100510.31;4941682;28;20055;-82
2022/08/16 03:31:57;;;;;;;7.55;4.22;;;;;;;24.94;54.97;100540.22;4924063;28;20615;-82
2022/08/16 03:34:25;;;;;;;4.18;3.60;;;;;;;24.66;54.99;100494.72;4941272;28;20686;-83
2022/08/16 03:36:52;;;;;;;7.07;3.80;;;;;;;24.66;54.70;100492.84;4941011;28;20086;-81
2022/08/16 03:39:19;;;;;;;6.45;4.25;;;;;;;24.73;54.38;100509.00;4941249;28;20697;-82
2022/08/16 03:41:46;;;;;;;5.20;3.85;;;;;;;24.95;54.38;100545.44;4923224;28;20066;-82
2022/08/16 03:44:16;;;;;;;7.68;3.97;;;;;;;24.74;54.20;100516.09;4939402;28;20679;-82
2022/08/16 03:47:03;;;;;;;4.88;3.80;;;;;;;24.98;54.11;100537.84;4926303;28;20065;-84
2022/08/16 03:49:36;;;;;;;6.82;3.80;;;;;;;25.09;53.73;100554.19;4939475;28;20055;-82
2022/08/16 03:52:04;;;;;;;10.05;4.15;;;;;;;25.06;54.02;100567.41;4939446;28;20142;-82
2022/08/16 03:54:31;;;;;;;8.25;4.45;;;;;;;24.99;54.56;100561.25;4885787;29;20158;-81
2022/08/16 03:57:02;;;;;;;5.38;4.55;;;;;;;24.70;54.88;100523.06;4901665;29;20051;-81
2022/08/16 03:59:31;;;;;;;7.93;4.00;;;;;;;24.90;54.99;100560.75;4901311;29;20056;-83
2022/08/16 04:01:59;;;;;;;6.55;4.15;;;;;;;24.80;55.34;100546.91;4904792;29;20605;-83
2022/08/16 04:04:27;;;;;;;11.55;5.07;;;;;;;24.88;55.33;100569.16;4905081;29;20059;-82
2022/08/16 04:07:02;;;;;;;7.80;4.07;;;;;;;24.56;55.47;100511.56;4902747;29;20060;-83
2022/08/16 04:09:32;;;;;;;7.78;4.07;;;;;;;24.46;55.58;100517.53;4900676;29;20472;-82
2022/08/16 04:12:03;;;;;;;10.32;3.75;;;;;;;24.53;55.34;100531.84;4900496;29;20054;-82
2022/08/16 04:14:38;;;;;;;4.35;3.63;;;;;;;24.71;55.18;100566.25;4901597;29;20059;-82
2022/08/16 04:17:14;;;;;;;7.35;4.05;;;;;;;24.70;55.10;100548.31;4900831;29;20063;-83
2022/08/16 04:19:43;;;;;;;6.57;4.15;;;;;;;24.53;54.89;100507.41;4900268;29;20058;-83
2022/08/16 04:22:12;;;;;;;7.15;3.97;;;;;;;24.87;54.90;100559.34;4902007;29;20055;-83
2022/08/16 04:24:38;;;;;;;13.38;4.88;;;;;;;24.77;54.79;100564.50;4900124;29;20064;-84
2022/08/16 04:27:06;;;;;;;7.70;4.35;;;;;;;24.82;55.11;100572.78;4899825;29;20532;-82
2022/08/16 04:29:34;;;;;;;8.23;3.60;;;;;;;24.77;54.71;100564.50;4900683;29;20209;-82
2022/08/16 04:32:12;;;;;;;5.85;3.70;;;;;;;24.85;55.22;100572.31;4900362;29;20132;-83
2022/08/16 04:34:39;;;;;;;4.50;3.80;;;;;;;24.86;55.17;100573.97;4900797;29;20696;-83
2022/08/16 04:37:06;;;;;;;9.30;4.47;;;;;;;24.78;55.05;100574.28;4899572;29;20864;-82
2022/08/16 04:39:35;;;;;;;7.07;3.80;;;;;;;24.68;55.63;100587.59;4901089;29;20695;-82
2022/08/16 04:42:14;;;;;;;5.32;3.95;;;;;;;24.73;55.56;100585.88;4901560;29;20055;-81
2022/08/16 04:44:40;;;;;;;9.55;4.20;;;;;;;24.65;55.11;100572.59;4900008;29;20059;-79
2022/08/16 04:47:23;;;;;;;7.38;4.65;;;;;;;24.69;55.87;100595.50;4899978;29;20612;-83
2022/08/16 04:49:57;;;;;;;7.38;4.20;;;;;;;24.57;55.67;100563.97;4900342;29;20055;-83
2022/08/16 04:52:24;;;;;;;8.73;5.03;;;;;;;24.51;55.09;100561.09;4906654;28;20110;-81
2022/08/16 04:55:08;;;;;;;11.00;5.10;;;;;;;24.27;55.24;100533.03;4923616;28;20058;-83
2022/08/16 04:57:37;;;;;;;9.00;4.38;;;;;;;24.75;55.02;100610.03;4922635;28;20053;-82
2022/08/16 05:00:09;;;;;;;5.03;4.25;;;;;;;24.36;55.74;100549.78;4939583;28;20888;-83
2022/08/16 05:02:55;;;;;;;;;;;;;;;24.56;56.67;100594.84;4940185;28;20054;-83
2022/08/16 05:05:26;;;;;;;5.53;4.30;;;;;;;24.18;56.19;100530.84;4939847;28;19932;-83
2022/08/16 05:08:00;;;;;;;11.85;4.57;;;;;;;24.64;56.69;100613.56;4937835;28;20263;-82
2022/08/16 05:10:46;;;;;;;5.82;4.90;;;;;;;24.49;56.39;100584.94;4938018;28;20066;-83
2022/08/16 05:13:16;;;;;;;5.88;4.63;;;;;;;24.45;56.19;100572.84;4939475;28;20611;-81
2022/08/16 05:15:42;;;;;;;8.90;5.03;;;;;;;24.58;56.56;100598.19;4938088;28;20556;-82
2022/08/16 05:18:09;;;;;;;6.90;4.82;;;;;;;24.66;56.83;100606.84;4938177;28;20177;-82
2022/08/16 05:20:41;;;;;;;6.60;4.68;;;;;;;24.65;57.01;100612.50;4938351;28;20054;-81
2022/08/16 05:23:27;;;;;;;8.13;4.68;;;;;;;24.51;57.28;100599.06;4938573;28;20057;-82
2022/08/16 05:25:58;;;;;;;11.05;5.18;;;;;;;24.60;57.17;100617.78;4939552;28;20065;-82
2022/08/16 05:28:26;;;;;;;5.82;4.70;;;;;;;24.42;57.15;100588.72;4940057;28;20165;-82
2022/08/16 05:31:03;;;;;;;7.47;4.65;;;;;;;24.33;57.08;100574.66;4927538;28;20592;-82
2022/08/16 05:33:32;;;;;;;7.15;4.80;;;;;;;24.68;56.74;100612.03;4942088;28;20065;-85
2022/08/16 05:35:59;;;;;;;6.82;4.97;;;;;;;24.64;56.98;100597.28;4943813;28;20260;-83
2022/08/16 05:38:29;;;;;;;7.30;4.90;;;;;;;24.64;56.87;100594.56;4926300;28;20160;-79
2022/08/16 05:41:06;;;;;;;8.93;5.35;;;;;;;24.46;56.74;100558.22;4942455;28;20362;-81
2022/08/16 05:43:35;;;;;;;8.73;4.70;;;;;;;24.81;56.70;100630.00;4926385;28;20078;-82
2022/08/16 05:46:18;;;;;;;7.70;4.75;;;;;;;24.35;56.40;100534.59;4927864;28;20114;-83
2022/08/16 05:48:59;;;;;;;9.88;4.47;;;;;;;24.90;56.18;100624.06;4943628;28;20153;-82
2022/08/16 05:51:35;;;;;;;10.35;4.07;;;;;;;24.78;55.89;100615.00;4943341;28;20062;-83
2022/08/16 05:54:08;;;;;;;11.07;4.88;;;;;;;24.89;55.88;100632.41;4927718;28;20065;-81
2022/08/16 05:56:40;;;;;;;7.75;4.72;;;;;;;24.92;55.79;100632.78;4923228;29;20065;-82
2022/08/16 05:59:08;;;;;;;5.68;3.92;;;;;;;24.90;55.56;100634.91;4928221;29;20077;-82
2022/08/16 06:01:36;;;;;;;5.20;3.97;;;;;;;24.44;55.67;100560.34;4919110;29;20063;-82
2022/08/16 06:04:06;;;;;;;7.88;3.72;;;;;;;24.91;55.43;100624.88;4947642;29;20051;-83
2022/08/16 06:06:53;;;;;;;10.32;5.30;;;;;;;24.77;55.23;100591.66;4935267;28;21018;-81
2022/08/16 06:09:24;;;;;;;4.68;3.80;;;;;;;24.66;54.99;100576.97;4907335;29;20052;-82
2022/08/16 06:12:09;;;;;;;6.90;3.70;;;;;;;24.92;54.99;100621.91;4909006;29;20436;-81
2022/08/16 06:14:36;;;;;;;10.68;3.80;;;;;;;24.93;54.49;100610.00;4922347;29;20457;-83
2022/08/16 06:17:06;;;;;;;10.63;4.00;;;;;;;24.89;54.46;100589.78;4921776;29;20142;-82
2022/08/16 06:19:33;;;;;;;6.10;4.07;;;;;;;24.89;54.83;100589.78;4923435;29;20659;-81
2022/08/16 06:22:01;;;;;;;7.22;3.75;;;;;;;25.07;54.45;100612.50;4921922;29;20344;-82
2022/08/16 06:24:28;;;;;;;6.20;3.63;;;;;;;24.77;54.52;100550.94;4921682;29;20468;-81
2022/08/16 06:27:14;;;;;;;15.57;4.30;;;;;;;25.02;54.52;100593.38;4908557;29;20047;-81
2022/08/16 06:29:43;;;;;;;5.18;3.20;;;;;;;25.18;54.32;100606.31;4906544;29;20169;-81
2022/08/16 06:32:15;;;;;;;4.05;3.65;;;;;;;25.17;54.69;100585.63;4908010;29;20507;-82
2022/08/16 06:34:53;;;;;;;5.75;3.53;;;;;;;25.16;54.64;100578.53;4907875;29;20059;-81
2022/08/16 06:37:22;;;;;;;5.55;4.07;;;;;;;25.44;54.24;100613.22;4905784;29;20986;-81
2022/08/16 06:40:03;;;;;;;7.88;4.28;;;;;;;25.52;53.90;100614.75;4923452;28;20687;-82
2022/08/16 06:42:38;;;;;;;4.90;3.55;;;;;;;25.43;53.64;100594.44;4906608;29;20627;-81
2022/08/16 06:45:22;;;;;;;7.82;3.97;;;;;;;24.90;54.02;100509.16;4915646;28;20334;-80
2022/08/16 06:47:55;;;;;;;5.10;3.47;;;;;;;25.52;53.32;100593.03;4880911;29;20066;-81
2022/08/16 06:50:23;;;;;;;10.82;3.90;;;;;;;25.75;53.64;100606.63;4863495;28;20227;-80
2022/08/16 06:52:56;;;;;;;8.55;3.55;;;;;;;25.77;53.31;100603.66;4880339;29;20475;-82
2022/08/16 06:55:27;;;;;;;5.78;3.80;;;;;;;25.77;53.49;100600.94;4864664;29;20052;-82
2022/08/16 06:58:00;;;;;;;4.47;3.42;;;;;;;25.76;53.42;100594.69;4865959;29;20048;-82
2022/08/16 07:00:34;;;;;;;6.38;3.42;;;;;;;25.37;53.05;100531.00;4880617;29;21074;-80
2022/08/16 07:03:05;;;;;;;10.35;4.03;;;;;;;25.89;52.82;100611.84;4864197;29;20212;-82
2022/08/16 07:05:52;;;;;;;6.38;3.35;;;;;;;25.97;52.55;100606.88;4866531;29;20279;-82
2022/08/16 07:08:19;;;;;;;9.95;3.72;;;;;;;25.70;52.60;100543.97;4864127;29;20525;-82
2022/08/16 07:10:46;;;;;;;6.80;3.95;;;;;;;26.19;52.20;100615.25;4879882;29;20350;-81
2022/08/16 07:13:13;;;;;;;7.45;3.80;;;;;;;26.15;52.02;100619.50;4863662;29;20098;-82
2022/08/16 07:16:01;;;;;;;6.80;3.35;;;;;;;26.15;52.46;100614.06;4899020;29;20155;-82
2022/08/16 07:18:28;;;;;;;7.75;3.83;;;;;;;25.43;51.93;100488.44;4919716;29;20051;-83
2022/08/16 07:20:57;;;;;;;3.90;3.15;;;;;;;26.26;51.61;100614.25;4920653;29;20404;-83
2022/08/16 07:23:28;;;;;;;4.43;3.20;;;;;;;26.36;52.05;100619.91;4919743;28;20187;-83
2022/08/16 07:26:09;;;;;;;4.00;3.30;;;;;;;26.44;51.63;100614.13;4919021;29;20134;-84
2022/08/16 07:28:50;;;;;;;6.10;3.47;;;;;;;26.30;51.65;100599.13;4920571;29;20660;-83
2022/08/16 07:31:19;;;;;;;6.22;3.88;;;;;;;26.38;51.74;100612.34;4919096;29;20051;-83
2022/08/16 07:33:46;;;;;;;7.32;3.67;;;;;;;26.35;51.65;100610.09;4919866;28;20793;-83
2022/08/16 07:36:21;;;;;;;7.28;3.22;;;;;;;26.45;51.57;100615.75;4918858;28;20051;-83
2022/08/16 07:38:48;;;;;;;8.80;2.90;;;;;;;26.52;51.16;100613.72;4921058;29;20842;-82
2022/08/16 07:41:16;;;;;;;7.22;3.50;;;;;;;26.64;50.94;100630.88;4919320;29;20059;-82
2022/08/16 07:43:45;;;;;;;6.45;3.42;;;;;;;26.46;50.63;100573.88;4919376;29;20044;-82
2022/08/16 07:46:13;;;;;;;5.22;3.33;;;;;;;26.71;50.23;100622.56;4918454;29;20158;-81
2022/08/16 07:49:00;;;;;;;8.45;4.10;;;;;;;26.58;50.56;100615.53;4918597;29;20082;-81
2022/08/16 07:51:31;;;;;;;6.88;3.53;;;;;;;26.55;50.67;100615.97;4920356;28;20058;-83
2022/08/16 07:54:06;;;;;;;4.45;3.65;;;;;;;26.76;50.72;100640.91;4915404;29;20057;-82
2022/08/16 07:56:36;;;;;;;4.80;3.30;;;;;;;25.85;51.02;100491.81;4918511;29;20523;-82
2022/08/16 07:59:04;;;;;;;7.32;3.38;;;;;;;26.83;50.94;100636.97;4919141;29;20074;-82
2022/08/16 08:01:32;;;;;;;5.05;3.38;;;;;;;26.87;50.52;100642.75;4919162;29;20142;-82
2022/08/16 08:04:01;;;;;;;7.10;3.25;;;;;;;26.90;50.56;100620.47;4918569;29;20406;-82
2022/08/16 08:06:31;;;;;;;7.68;3.50;;;;;;;27.01;49.92;100644.09;4918705;29;20059;-82
2022/08/16 08:08:59;;;;;;;3.78;3.40;;;;;;;27.05;50.43;100649.91;4923570;28;20051;-82
2022/08/16 08:11:28;;;;;;;7.00;3.42;;;;;;;26.76;50.45;100592.72;4919296;29;20354;-81
2022/08/16 08:13:58;;;;;;;9.90;3.58;;;;;;;26.69;50.11;100569.44;4919566;29;20586;-82
2022/08/16 08:16:30;;;;;;;6.55;3.78;;;;;;;26.97;49.85;100599.38;4920099;29;20138;-81
2022/08/16 08:18:59;;;;;;;8.45;3.83;;;;;;;27.30;49.94;100657.72;4918773;29;20051;-80
2022/08/16 08:21:31;;;;;;;4.13;3.25;;;;;;;27.24;49.31;100628.75;4920144;29;20067;-82
2022/08/16 08:24:19;;;;;;;5.93;3.70;;;;;;;26.78;49.49;100551.63;4920235;28;20055;-81
2022/08/16 08:26:46;;;;;;;5.43;3.38;;;;;;;26.93;49.54;100576.41;4919357;29;20592;-80
2022/08/16 08:29:19;;;;;;;5.40;3.42;;;;;;;27.35;49.76;100646.91;4920618;28;20652;-80
2022/08/16 08:31:51;;;;;;;5.47;3.30;;;;;;;26.96;49.89;100573.19;4904888;29;20047;-81
2022/08/16 08:34:19;;;;;;;7.53;3.75;;;;;;;27.54;49.42;100642.03;4922686;29;20063;-81
2022/08/16 08:36:48;;;;;;;5.97;3.65;;;;;;;27.38;49.44;100624.63;4922789;29;20943;-82
2022/08/16 08:39:20;;;;;;;7.85;3.70;;;;;;;27.61;49.21;100641.88;4920927;29;20485;-82
2022/08/16 08:41:48;;;;;;;6.93;3.60;;;;;;;27.57;49.84;100646.16;4920313;29;20608;-81
2022/08/16 08:44:18;;;;;;;9.38;4.03;;;;;;;27.59;49.86;100644.84;4921072;29;20264;-81
2022/08/16 08:46:57;;;;;;;9.52;3.92;;;;;;;27.72;49.94;100660.06;4904527;29;20075;-81
2022/08/16 08:49:30;;;;;;;13.10;4.00;;;;;;;27.74;49.92;100649.72;4920005;29;20179;-81
2022/08/16 08:52:18;;;;;;;6.75;4.10;;;;;;;27.65;50.31;100616.59;4921869;28;20065;-80
2022/08/16 08:55:04;;;;;;;11.48;3.97;;;;;;;27.57;50.11;100594.38;4939508;28;20328;-82
2022/08/16 08:57:38;;;;;;;6.10;4.10;;;;;;;27.78;49.61;100614.59;4940745;28;20260;-81
2022/08/16 09:00:08;;;;;;;9.55;3.90;;;;;;;28.12;49.63;100664.50;4922592;28;20520;-80
2022/08/16 09:02:42;;;;;;;10.40;4.72;;;;;;;28.05;49.78;100622.91;4924767;28;20145;-82
2022/08/16 09:05:12;;;;;;;10.30;4.53;;;;;;;28.15;50.01;100641.31;4922453;28;20057;-81
2022/08/16 09:07:42;;;;;;;10.65;4.32;;;;;;;28.37;49.68;100664.00;4922535;29;20159;-82
2022/08/16 09:10:28;;;;;;;6.63;4.07;;;;;;;28.23;49.11;100633.53;4919980;29;20055;-82
2022/08/16 09:12:56;;;;;;;7.50;4.28;;;;;;;28.59;49.15;100664.03;4921049;29;20374;-82
2022/08/16 09:15:25;;;;;;;7.25;4.00;;;;;;;28.39;49.12;100609.97;4918278;29;20115;-82
2022/08/16 09:17:59;;;;;;;8.55;4.20;;;;;;;28.49;48.78;100603.84;4919145;29;20775;-83
2022/08/16 09:20:46;;;;;;;11.35;4.05;;;;;;;28.98;48.92;100672.13;4920439;29;20055;-81
2022/08/16 09:23:26;;;;;;;12.07;4.32;;;;;;;28.86;48.39;100644.13;4916377;29;20296;-81
2022/08/16 09:25:53;;;;;;;6.63;4.28;;;;;;;29.13;47.82;100671.50;4921210;29;20078;-80
2022/08/16 09:28:20;;;;;;;6.13;4.25;;;;;;;29.10;47.77;100670.09;4922067;29;20190;-81
2022/08/16 09:31:07;;;;;;;7.20;4.05;;;;;;;29.25;48.16;100668.59;4920936;29;20421;-80
2022/08/16 09:33:37;;;;;;;8.82;4.80;;;;;;;29.32;47.93;100636.38;4920191;29;20679;-81
2022/08/16 09:36:06;;;;;;;6.13;4.38;;;;;;;29.45;47.70;100640.63;4905538;29;20776;-81
2022/08/16 09:38:53;;;;;;;10.55;4.63;;;;;;;29.42;48.00;100631.03;4921713;29;20560;-81
2022/08/16 09:41:25;;;;;;;8.30;4.10;;;;;;;29.75;47.79;100681.09;4920216;29;20055;-82
2022/08/16 09:43:54;;;;;;;8.15;3.92;;;;;;;29.90;47.54;100678.44;4920660;29;20094;-83
2022/08/16 09:46:26;;;;;;;10.00;4.55;;;;;;;29.97;47.39;100673.56;4919500;29;20059;-81
2022/08/16 09:49:13;;;;;;;12.77;4.25;;;;;;;30.18;46.86;100679.19;4920675;28;20047;-82
2022/08/16 09:51:41;;;;;;;8.70;4.53;;;;;;;30.20;46.49;100677.00;4918469;29;20058;-82
2022/08/16 09:54:09;;;;;;;10.98;4.57;;;;;;;30.23;46.18;100681.94;4935827;28;20293;-80
2022/08/16 09:56:43;;;;;;;13.90;4.90;;;;;;;30.30;45.50;100671.59;4923976;28;20061;-83
2022/08/16 09:59:20;;;;;;;8.15;4.72;;;;;;;30.06;45.11;100619.16;4939132;28;20058;-82
2022/08/16 10:01:49;;;;;;;5.82;5.07;;;;;;;30.52;45.13;100678.84;4941905;28;20333;-83
2022/08/16 10:04:18;;;;;;;7.25;4.72;;;;;;;30.34;45.08;100650.81;4943286;28;20065;-84
2022/08/16 10:07:03;;;;;;;7.00;3.95;;;;;;;30.03;44.85;100574.00;4932057;28;20055;-83
2022/08/16 10:09:43;;;;;;;11.77;4.88;;;;;;;30.68;44.85;100644.91;4934042;28;20086;-83
2022/08/16 10:15:19;;;;;;;12.48;5.40;;;;;;;31.29;44.17;100688.13;4933610;28;20061;-82
2022/08/16 10:17:50;;;;;;;10.98;4.90;;;;;;;31.37;43.79;100675.78;4932596;28;20418;-83
2022/08/16 10:20:28;;;;;;;11.10;4.90;;;;;;;31.65;42.95;100675.25;4926868;29;20053;-82
2022/08/16 10:22:54;;;;;;;6.95;4.65;;;;;;;31.55;42.80;100645.06;4935452;29;20055;-83
2022/08/16 10:25:33;;;;;;;9.10;4.68;;;;;;;31.88;42.29;100671.09;4928203;29;20059;-83
2022/08/16 10:28:20;;;;;;;12.65;4.85;;;;;;;32.03;41.98;100685.94;4924627;29;20123;-83
2022/08/16 10:31:00;;;;;;;4.97;4.47;;;;;;;32.11;42.42;100677.97;4923288;29;20071;-83
2022/08/16 10:33:32;;;;;;;8.95;5.10;;;;;;;32.51;41.01;100681.69;4940330;29;20050;-81
2022/08/16 10:36:03;;;;;;;8.32;4.28;;;;;;;32.42;40.77;100638.56;4925057;29;20882;-83
2022/08/16 10:38:31;;;;;;;9.32;4.80;;;;;;;32.27;40.33;100606.50;4943744;29;20150;-83
2022/08/16 10:41:03;;;;;;;11.20;5.03;;;;;;;32.70;40.22;100690.13;4928134;29;20229;-85
2022/08/16 10:43:30;;;;;;;10.68;5.40;;;;;;;32.67;40.31;100656.88;4949573;29;20039;-83
2022/08/16 10:45:58;;;;;;;9.20;4.63;;;;;;;32.78;40.26;100683.22;4934945;29;20063;-84
2022/08/16 10:48:27;;;;;;;9.20;4.82;;;;;;;32.95;39.61;100669.91;4929364;29;20055;-83
2022/08/16 10:50:57;;;;;;;9.80;4.50;;;;;;;33.10;39.50;100677.28;4910725;29;20111;-81
2022/08/16 10:53:30;;;;;;;5.75;4.40;;;;;;;32.87;39.64;100645.78;4938221;28;20049;-80
2022/08/16 10:56:01;;;;;;;12.30;4.88;;;;;;;32.73;39.90;100601.59;4929885;28;20062;-82
2022/08/16 10:58:33;;;;;;;7.45;4.50;;;;;;;33.14;39.55;100666.53;4933878;28;20130;-81
2022/08/16 11:01:07;;;;;;;8.45;4.75;;;;;;;33.51;39.02;100676.16;4931475;28;20132;-81
2022/08/16 11:03:54;;;;;;;9.93;4.43;;;;;;;33.60;38.92;100664.25;4932226;28;20225;-81
2022/08/16 11:06:23;;;;;;;13.77;4.78;;;;;;;32.63;38.51;100490.94;4947091;28;20545;-82
2022/08/16 11:08:56;;;;;;;9.73;4.00;;;;;;;33.96;38.63;100674.94;4942615;28;20069;-83
2022/08/16 11:11:43;;;;;;;9.55;4.60;;;;;;;34.04;38.31;100684.47;4928038;28;20055;-82
2022/08/16 11:14:30;;;;;;;12.45;4.40;;;;;;;33.88;37.98;100659.03;4941402;28;20050;-82
2022/08/16 11:16:59;;;;;;;13.40;4.28;;;;;;;33.93;37.72;100627.88;4926092;28;20050;-81
2022/08/16 11:19:34;;;;;;;10.07;4.40;;;;;;;34.31;37.71;100674.84;4942049;28;20223;-81
2022/08/16 11:22:21;;;;;;;7.93;4.70;;;;;;;34.31;37.18;100672.09;4941751;28;20054;-82
2022/08/16 11:25:08;;;;;;;9.85;4.53;;;;;;;34.29;37.47;100661.34;4941489;28;20508;-82
2022/08/16 11:27:57;;;;;;;11.38;4.68;;;;;;;34.64;37.36;100682.16;4944230;28;20960;-82
2022/08/16 11:30:26;;;;;;;10.77;4.80;;;;;;;34.47;36.80;100632.22;4943392;28;20160;-83
2022/08/16 11:33:04;;;;;;;15.17;4.80;;;;;;;34.75;36.58;100630.47;4941323;28;20051;-83
2022/08/16 11:35:32;;;;;;;7.18;5.20;;;;;;;35.12;36.01;100658.34;4941100;28;20405;-82
2022/08/16 11:38:21;;;;;;;8.70;4.95;;;;;;;34.99;35.69;100655.19;4944238;28;20050;-82
2022/08/16 11:41:08;;;;;;;6.93;4.50;;;;;;;34.82;36.63;100657.66;4941573;28;20051;-81
2022/08/16 11:43:38;;;;;;;7.90;4.80;;;;;;;34.99;36.67;100660.72;4925623;28;20058;-82
2022/08/16 11:46:08;;;;;;;9.93;4.35;;;;;;;35.16;36.10;100637.31;4940635;28;20167;-83
2022/08/16 11:48:55;;;;;;;6.78;4.55;;;;;;;35.47;35.10;100643.16;4941766;28;20077;-82
2022/08/16 11:51:22;;;;;;;11.95;5.25;;;;;;;35.47;35.65;100630.16;4941660;28;20713;-83
2022/08/16 11:53:49;;;;;;;13.90;5.20;;;;;;;35.65;35.45;100647.81;4938633;28;20166;-85
2022/08/16 11:56:17;;;;;;;8.52;5.05;;;;;;;35.83;35.07;100637.84;4938015;28;20531;-85